Time;durP1;ratioP1;P1;durP2;ratioP2;P2;SDS_P1;SDS_P2;PMS_P1;PMS_P2;Temp;Humidity;BMP_temperature;BMP_pressure;BME280_temperature;BME280_humidity;BME280_pressure;Samples;Min_cycle;Max_cycle;Signal;HPM_P1;HPM_P2
2022/05/24 05:58:05;;;;;;;3.17;1.20;;;;;;;13.95;26.54;98290.09;5063345;28;20399;-55
2022/05/24 06:00:30;;;;;;;5.15;1.63;;;;;;;14.20;27.06;98288.34;5051361;28;20051;-55
2022/05/24 06:02:57;;;;;;;6.15;1.40;;;;;;;14.39;27.11;98278.28;5030346;28;20127;-55
2022/05/24 06:05:23;;;;;;;2.70;1.58;;;;;;;14.54;26.83;98287.63;5051869;28;20462;-55
2022/05/24 06:07:48;;;;;;;6.55;2.75;;;;;;;14.67;27.16;98279.72;5044083;28;20029;-51
2022/05/24 06:10:14;;;;;;;3.47;1.33;;;;;;;14.70;26.83;98275.09;5046794;28;20040;-55
2022/05/24 06:12:40;;;;;;;4.95;1.60;;;;;;;14.80;26.38;98283.13;5047432;28;20090;-54
2022/05/24 06:15:07;;;;;;;8.48;1.45;;;;;;;14.80;26.04;98268.25;5047694;28;20052;-56
2022/05/24 06:17:33;;;;;;;8.20;1.70;;;;;;;15.04;25.96;98273.44;5046101;28;20467;-54
2022/05/24 06:20:02;;;;;;;3.25;1.38;;;;;;;15.21;25.84;98274.78;5046863;28;20045;-52
2022/05/24 06:22:28;;;;;;;4.82;1.73;;;;;;;15.40;25.67;98269.81;5046345;28;20421;-50
2022/05/24 06:24:54;;;;;;;6.75;2.80;;;;;;;15.60;25.31;98279.63;5046275;28;20049;-51
2022/05/24 06:27:21;;;;;;;3.90;1.70;;;;;;;15.69;24.89;98272.84;5047190;28;20087;-54
2022/05/24 06:29:47;;;;;;;5.82;1.50;;;;;;;15.70;24.99;98269.28;5047269;28;20052;-53
2022/05/24 06:32:13;;;;;;;6.50;1.80;;;;;;;15.92;25.03;98273.66;5045594;28;20470;-55
2022/05/24 06:34:40;;;;;;;7.80;4.25;;;;;;;16.05;24.65;98274.38;5046317;28;20517;-53
2022/05/24 06:37:07;;;;;;;3.10;1.83;;;;;;;16.09;24.67;98258.28;5045383;28;20508;-53
2022/05/24 06:39:33;;;;;;;5.22;1.50;;;;;;;16.49;24.41;98274.25;5046970;28;20045;-53
2022/05/24 06:41:59;;;;;;;7.05;2.17;;;;;;;17.05;24.24;98287.22;5043414;28;20091;-54
2022/05/24 06:44:27;;;;;;;4.25;1.75;;;;;;;17.35;23.56;98271.50;5072106;28;20406;-51
2022/05/24 06:46:54;;;;;;;5.63;1.98;;;;;;;17.47;23.23;98288.03;5045450;28;20044;-51
2022/05/24 06:49:20;;;;;;;3.75;1.95;;;;;;;17.40;23.35;98272.91;5042789;28;20102;-54
2022/05/24 06:51:46;;;;;;;6.13;1.80;;;;;;;17.25;23.58;98286.38;5039402;28;20513;-51
2022/05/24 06:54:13;;;;;;;3.05;1.63;;;;;;;16.95;22.77;98296.81;5043661;28;20037;-52
2022/05/24 06:56:38;;;;;;;1.80;1.40;;;;;;;16.64;21.71;98288.00;5044446;28;20053;-51
2022/05/24 07:04:32;;;;;;;4.97;1.58;;;;;;;15.85;22.13;98288.22;5040639;28;20111;-53
2022/05/24 07:06:58;;;;;;;9.82;2.17;;;;;;;15.91;22.41;98295.59;5046118;28;20509;-55
2022/05/24 07:09:28;;;;;;;2.90;1.55;;;;;;;15.90;22.78;98302.63;5030638;28;20501;-51
2022/05/24 07:11:55;;;;;;;5.53;2.70;;;;;;;15.93;23.11;98305.00;5033424;28;20071;-53
2022/05/24 07:14:21;;;;;;;4.15;1.52;;;;;;;16.01;23.62;98304.41;5028421;28;20045;-55
2022/05/24 07:16:46;;;;;;;4.57;1.70;;;;;;;16.05;23.88;98305.84;5032640;28;20033;-50
2022/05/24 07:19:12;;;;;;;6.43;1.52;;;;;;;16.03;24.10;98313.81;5033026;28;20077;-53
2022/05/24 07:21:38;;;;;;;5.60;1.80;;;;;;;15.90;24.26;98314.91;5033321;28;20041;-54
2022/05/24 07:24:04;;;;;;;4.00;1.40;;;;;;;15.70;24.43;98318.22;5031921;28;20432;-57
2022/05/24 07:26:30;;;;;;;7.40;1.63;;;;;;;15.55;24.43;98328.91;5031987;28;20061;-55
2022/05/24 07:28:56;;;;;;;7.32;1.60;;;;;;;15.49;24.63;98336.38;5025242;28;20073;-56
2022/05/24 07:31:22;;;;;;;13.68;2.28;;;;;;;15.28;25.50;98331.78;5026380;28;20053;-55
2022/05/24 07:33:47;;;;;;;5.00;1.92;;;;;;;15.05;26.27;98329.22;5023828;28;20037;-55
2022/05/24 07:36:14;;;;;;;7.53;2.17;;;;;;;14.89;26.95;98353.06;5031387;28;20040;-55
2022/05/24 07:38:39;;;;;;;7.13;1.90;;;;;;;14.67;27.73;98358.19;5032738;28;20124;-55
2022/05/24 07:46:34;;;;;;;11.40;2.13;;;;;;;14.55;29.34;98385.25;5032198;28;20049;-55
2022/05/24 07:49:00;;;;;;;7.90;1.80;;;;;;;14.57;29.98;98397.25;5031138;28;20571;-56
2022/05/24 07:51:26;;;;;;;8.80;2.10;;;;;;;14.63;30.05;98399.44;5031102;28;20041;-53
2022/05/24 07:53:52;;;;;;;10.82;1.83;;;;;;;14.63;30.30;98411.69;5031478;28;20474;-54
2022/05/24 07:56:19;;;;;;;5.35;1.75;;;;;;;14.55;30.53;98406.97;5031149;28;20055;-53
2022/05/24 07:58:46;;;;;;;9.93;1.88;;;;;;;14.44;31.11;98403.47;5031485;28;20040;-54
2022/05/24 08:01:14;;;;;;;5.18;1.77;;;;;;;14.29;31.41;98406.16;5029433;28;20037;-56
2022/05/24 08:03:40;;;;;;;7.70;2.45;;;;;;;14.14;31.52;98402.00;5055801;28;20455;-53
2022/05/24 08:06:06;;;;;;;8.57;2.20;;;;;;;14.02;32.16;98426.38;5030181;28;20124;-52
2022/05/24 08:08:33;;;;;;;7.05;2.00;;;;;;;13.95;32.39;98425.13;5031704;28;20124;-53
2022/05/24 08:10:59;;;;;;;12.95;3.08;;;;;;;13.88;32.45;98429.91;5030167;28;20029;-52
2022/05/24 08:13:25;;;;;;;5.82;1.65;;;;;;;13.86;32.79;98431.81;5031257;28;20044;-54
2022/05/24 08:15:52;;;;;;;5.22;2.42;;;;;;;13.87;32.74;98437.88;5030581;28;20071;-57
2022/05/24 08:18:20;;;;;;;6.20;2.28;;;;;;;13.84;33.02;98432.84;5031108;28;20041;-56
2022/05/24 08:20:47;;;;;;;4.63;1.58;;;;;;;13.79;33.18;98434.94;5028108;28;20034;-51
2022/05/24 08:23:13;;;;;;;11.77;2.40;;;;;;;13.80;33.55;98450.50;5031241;28;20041;-54
2022/05/24 08:25:39;;;;;;;8.88;1.60;;;;;;;13.70;33.75;98449.44;5013351;28;20041;-58
2022/05/24 08:28:07;;;;;;;6.90;1.63;;;;;;;13.55;34.01;98460.91;5030635;28;20041;-54
2022/05/24 08:30:35;;;;;;;7.93;1.90;;;;;;;13.45;34.20;98465.88;5029700;28;20037;-57
2022/05/24 08:33:04;;;;;;;7.47;2.35;;;;;;;13.34;34.56;98452.72;5031259;28;20038;-55
2022/05/24 08:35:32;;;;;;;9.82;1.60;;;;;;;13.40;34.87;98477.56;5031008;28;20475;-52
2022/05/24 08:37:59;;;;;;;7.97;2.13;;;;;;;13.38;34.98;98471.63;5029065;28;20034;-53
2022/05/24 08:40:25;;;;;;;4.78;1.83;;;;;;;13.33;34.63;98466.69;5031623;28;20037;-54
2022/05/24 08:43:12;;;;;;;10.57;1.92;;;;;;;13.42;35.29;98475.69;5031283;28;20106;-54
2022/05/24 08:48:56;;;;;;;5.00;1.80;;;;;;;13.47;34.60;98487.50;5030966;28;20087;-50
2022/05/24 08:51:54;;;;;;;10.45;1.90;;;;;;;13.44;34.65;98492.94;5029698;28;20041;-54
2022/05/24 08:54:22;;;;;;;4.47;2.25;;;;;;;13.35;34.63;98477.84;5060795;28;20057;-53
2022/05/24 08:57:01;;;;;;;3.55;1.65;;;;;;;13.43;34.86;98498.25;5028998;28;20100;-56
2022/05/24 08:59:30;;;;;;;3.25;1.58;;;;;;;13.45;34.72;98505.03;5029966;28;20475;-54
2022/05/24 09:01:57;;;;;;;5.63;1.80;;;;;;;13.51;34.65;98501.19;5029673;28;20041;-56
2022/05/24 09:04:23;;;;;;;7.97;1.60;;;;;;;13.59;34.79;98496.31;5036412;28;20509;-50
2022/05/24 09:06:53;;;;;;;6.22;1.90;;;;;;;13.70;34.60;98503.47;5029941;28;20144;-55
2022/05/24 09:09:29;;;;;;;7.13;1.60;;;;;;;13.77;34.44;98504.72;5013296;28;20045;-53
2022/05/24 09:12:08;;;;;;;6.97;2.28;;;;;;;13.87;34.58;98500.59;5030946;28;20424;-54
2022/05/24 09:14:42;;;;;;;6.75;2.00;;;;;;;13.94;34.35;98505.28;5029620;28;20037;-56
2022/05/24 09:17:31;;;;;;;9.07;2.00;;;;;;;14.40;34.00;98505.63;5029222;28;20041;-54
2022/05/24 09:19:56;;;;;;;9.98;2.40;;;;;;;14.59;33.35;98523.53;5029583;28;20524;-58
2022/05/24 09:22:22;;;;;;;6.55;2.45;;;;;;;14.80;33.42;98515.97;5029895;28;20095;-55
2022/05/24 09:24:56;;;;;;;5.43;2.20;;;;;;;14.94;32.87;98530.69;5030837;28;20056;-56
2022/05/24 09:27:23;;;;;;;3.92;2.00;;;;;;;14.97;32.94;98531.31;5030938;28;20033;-55
2022/05/24 09:30:08;;;;;;;4.22;1.48;;;;;;;14.83;32.99;98521.81;5029352;28;20460;-57
2022/05/24 09:32:40;;;;;;;6.85;2.03;;;;;;;14.75;33.21;98541.63;5029778;28;20532;-56
2022/05/24 09:35:09;;;;;;;4.47;1.60;;;;;;;14.56;33.44;98541.19;5028555;28;20037;-54
2022/05/24 09:37:35;;;;;;;3.85;1.90;;;;;;;14.31;33.60;98548.09;5029095;28;20517;-54
2022/05/24 09:40:20;;;;;;;3.75;1.85;;;;;;;14.15;34.00;98564.88;5029513;28;20040;-54
2022/05/24 09:42:46;;;;;;;4.93;1.98;;;;;;;13.96;34.51;98570.50;5025900;28;20492;-54
2022/05/24 09:45:27;;;;;;;5.65;1.90;;;;;;;13.73;34.49;98572.00;5011687;28;20065;-49
2022/05/24 09:47:58;;;;;;;7.88;3.17;;;;;;;13.61;34.68;98561.53;5028772;28;20567;-54
2022/05/24 09:50:32;;;;;;;3.50;2.00;;;;;;;13.66;35.02;98570.72;5029666;28;20033;-54
2022/05/24 09:53:26;;;;;;;3.20;1.70;;;;;;;13.61;34.83;98577.19;5027631;28;20120;-53
2022/05/24 09:56:01;;;;;;;3.65;1.70;;;;;;;13.46;34.74;98587.66;5029808;28;20091;-53
2022/05/24 09:58:40;;;;;;;2.42;1.67;;;;;;;13.35;35.36;98584.03;5030139;28;20053;-51
2022/05/24 10:01:13;;;;;;;5.10;2.17;;;;;;;13.21;35.97;98571.88;5026600;28;20112;-52
2022/05/24 10:03:38;;;;;;;13.95;2.25;;;;;;;13.28;36.24;98580.16;5033744;28;20161;-53
2022/05/24 10:06:30;;;;;;;4.13;2.03;;;;;;;13.36;36.37;98580.50;5032836;28;20140;-53
2022/05/24 10:09:02;;;;;;;5.53;1.90;;;;;;;13.41;35.85;98583.66;5034831;28;20044;-53
2022/05/24 10:11:38;;;;;;;4.57;2.13;;;;;;;13.42;36.03;98586.19;5028404;28;20033;-51
2022/05/24 10:14:27;;;;;;;6.97;2.42;;;;;;;13.65;35.86;98589.97;5029179;28;20064;-51
2022/05/24 10:17:05;;;;;;;10.15;5.00;;;;;;;13.87;35.83;98595.44;5029892;28;20065;-54
2022/05/24 10:19:42;;;;;;;3.40;1.58;;;;;;;13.81;35.26;98584.56;5029141;28;20041;-55
2022/05/24 10:22:38;;;;;;;4.13;1.90;;;;;;;13.77;35.41;98602.19;5035922;28;20041;-53
2022/05/24 10:25:22;;;;;;;2.88;1.70;;;;;;;13.63;35.48;98609.25;5013584;28;20030;-53
2022/05/24 10:27:53;;;;;;;5.93;1.63;;;;;;;13.41;35.59;98601.94;5030311;28;20038;-53
2022/05/24 10:30:54;;;;;;;7.00;2.55;;;;;;;13.36;35.77;98606.63;5038297;28;20052;-51
2022/05/24 10:39:30;;;;;;;4.07;1.80;;;;;;;13.77;34.71;98602.19;5028124;28;20037;-54
2022/05/24 10:42:08;;;;;;;5.28;1.70;;;;;;;14.20;34.54;98609.84;5025764;28;20049;-53
2022/05/24 10:44:46;;;;;;;2.92;1.65;;;;;;;14.63;33.82;98600.00;5032733;28;20052;-49
2022/05/24 10:47:16;;;;;;;;;;;;;;;14.88;33.64;98614.84;5032538;28;20037;-52
2022/05/24 10:49:41;;;;;;;2.50;1.88;;;;;;;15.38;32.71;98613.97;5032722;28;19921;-51
2022/05/24 10:52:30;;;;;;;7.60;2.20;;;;;;;15.92;32.08;98617.03;5045273;28;20034;-56
2022/05/24 10:55:20;;;;;;;5.15;1.67;;;;;;;16.58;31.36;98619.06;5024005;28;20041;-53
2022/05/24 10:57:55;;;;;;;3.60;1.38;;;;;;;16.84;30.54;98611.84;5032077;28;20049;-55
2022/05/24 11:00:43;;;;;;;6.18;1.50;;;;;;;16.38;30.55;98609.25;5015600;28;20428;-53
2022/05/24 11:03:21;;;;;;;4.90;1.40;;;;;;;15.88;31.36;98624.28;5027273;28;20038;-54
2022/05/24 11:05:59;;;;;;;4.68;1.40;;;;;;;15.34;31.55;98621.19;5021959;28;20052;-52
2022/05/24 11:08:31;;;;;;;1.87;1.40;;;;;;;15.04;31.69;98625.94;5014845;28;20084;-51
2022/05/24 11:11:01;;;;;;;3.70;1.35;;;;;;;14.78;32.06;98625.13;5024307;28;20394;-52
2022/05/24 11:14:05;;;;;;;3.03;1.52;;;;;;;14.38;32.40;98625.22;5031779;28;20045;-50
2022/05/24 11:16:38;;;;;;;6.05;2.10;;;;;;;13.83;33.37;98590.53;5025550;28;20041;-51
2022/05/24 11:19:09;;;;;;;7.50;2.72;;;;;;;14.04;33.68;98643.16;5031609;28;20068;-57
2022/05/24 11:21:40;;;;;;;3.38;1.50;;;;;;;14.06;33.50;98647.38;5013458;28;20527;-57
2022/05/24 11:24:40;;;;;;;11.40;2.08;;;;;;;14.26;33.55;98651.28;5030036;28;20507;-58
2022/05/24 11:27:07;;;;;;;4.60;1.60;;;;;;;14.49;33.27;98655.88;5018738;28;20060;-53
2022/05/24 11:29:54;;;;;;;2.30;1.48;;;;;;;14.74;33.16;98648.06;5029478;28;20064;-51
2022/05/24 11:32:36;;;;;;;8.90;2.20;;;;;;;14.96;33.18;98651.81;5029114;28;20049;-50
2022/05/24 11:35:08;;;;;;;8.48;1.30;;;;;;;14.89;32.76;98651.41;5029942;28;20096;-52
2022/05/24 11:37:37;;;;;;;4.95;1.30;;;;;;;14.56;33.08;98651.06;5031192;28;20041;-52
2022/05/24 11:40:25;;;;;;;32.47;3.50;;;;;;;14.21;33.36;98645.53;5030072;28;20033;-55
2022/05/24 11:42:51;;;;;;;41.35;4.22;;;;;;;13.89;33.59;98642.38;5030299;28;20037;-56
2022/05/24 11:45:29;;;;;;;4.70;1.90;;;;;;;14.04;33.47;98662.28;5031458;28;20425;-54
2022/05/24 11:47:56;;;;;;;4.07;1.70;;;;;;;14.83;32.38;98667.50;5030786;28;20073;-57
2022/05/24 11:50:31;;;;;;;6.38;1.40;;;;;;;15.52;31.46;98672.31;5030871;28;20045;-56
2022/05/24 11:53:03;;;;;;;4.50;0.95;;;;;;;15.81;30.77;98670.22;5030064;28;20057;-57
2022/05/24 11:55:53;;;;;;;5.30;1.13;;;;;;;15.64;31.32;98668.00;5029048;28;20571;-56
2022/05/24 11:58:19;;;;;;;8.15;1.48;;;;;;;15.35;31.36;98675.25;5027138;28;20548;-55
2022/05/24 12:01:05;;;;;;;5.90;1.08;;;;;;;15.15;31.76;98687.09;5032518;28;20041;-56
2022/05/24 12:09:23;;;;;;;4.00;0.90;;;;;;;15.07;31.13;98692.00;5031032;28;20421;-54
2022/05/24 12:12:13;;;;;;;4.47;0.90;;;;;;;15.05;31.55;98700.91;5030283;28;20041;-52
2022/05/24 12:14:39;;;;;;;2.92;1.10;;;;;;;14.96;31.40;98705.00;5024694;28;20087;-58
2022/05/24 12:17:05;;;;;;;3.25;1.15;;;;;;;14.70;31.96;98704.16;5030517;28;20041;-56
2022/05/24 12:19:38;;;;;;;4.90;1.35;;;;;;;14.50;32.47;98712.44;5053392;28;20041;-58
2022/05/24 12:22:17;;;;;;;6.45;1.40;;;;;;;14.19;33.20;98713.56;5031391;28;20033;-57
2022/05/24 12:24:44;;;;;;;;;;;;;;;14.05;33.32;98708.41;5030506;28;20565;-56
2022/05/24 12:27:23;;;;;;;6.22;1.23;;;;;;;14.04;33.57;98721.56;5031324;28;19920;-56
2022/05/24 12:30:23;;;;;;;5.60;1.17;;;;;;;14.00;33.56;98724.38;5030567;28;20036;-58
2022/05/24 12:32:49;;;;;;;2.60;1.02;;;;;;;13.94;33.97;98731.78;5031453;28;20107;-58
2022/05/24 12:35:16;;;;;;;3.95;1.00;;;;;;;13.94;33.80;98731.78;5031511;28;20179;-58
2022/05/24 12:37:47;;;;;;;3.45;0.80;;;;;;;13.86;33.73;98732.28;5031104;28;20045;-57
2022/05/24 12:40:21;;;;;;;4.13;1.10;;;;;;;13.79;33.87;98733.56;5022779;28;20124;-59
2022/05/24 12:42:48;;;;;;;7.43;1.13;;;;;;;13.72;34.44;98736.66;5030720;28;20037;-58
2022/05/24 12:45:21;;;;;;;2.55;0.88;;;;;;;13.67;35.03;98738.72;5029719;28;20041;-54
2022/05/24 12:47:51;;;;;;;4.15;0.90;;;;;;;13.60;35.08;98740.88;5028813;28;20037;-58
2022/05/24 12:50:30;;;;;;;3.53;0.80;;;;;;;13.65;35.28;98741.44;5030089;28;20397;-59
2022/05/24 12:52:58;;;;;;;1.63;0.80;;;;;;;13.66;35.26;98743.09;5012923;28;20163;-60
2022/05/24 12:55:54;;;;;;;2.00;0.63;;;;;;;13.66;35.17;98742.28;5013626;28;20041;-59
2022/05/24 12:58:37;;;;;;;1.23;0.70;;;;;;;13.77;34.55;98758.09;5024695;28;20061;-58
2022/05/24 13:01:09;;;;;;;5.55;1.65;;;;;;;13.87;34.38;98759.25;5028643;28;20048;-61
2022/05/24 13:03:36;;;;;;;3.28;1.02;;;;;;;13.94;34.30;98748.28;5028175;28;20112;-61
2022/05/24 13:06:32;;;;;;;2.67;0.85;;;;;;;13.99;34.00;98759.28;5020117;28;20056;-57
2022/05/24 13:09:32;;;;;;;1.50;0.85;;;;;;;13.96;33.98;98751.66;5027382;28;20420;-59
2022/05/24 13:12:04;;;;;;;2.97;0.90;;;;;;;13.88;34.36;98768.72;5029768;28;20110;-61
2022/05/24 13:14:29;;;;;;;3.35;1.00;;;;;;;13.70;34.58;98762.88;5037807;28;20037;-60
2022/05/24 13:16:55;;;;;;;3.22;0.98;;;;;;;13.50;35.06;98778.94;5029180;28;20136;-61
2022/05/24 13:19:21;;;;;;;2.90;0.90;;;;;;;13.37;35.66;98773.59;5030572;28;20137;-58
2022/05/24 13:21:52;;;;;;;2.45;0.82;;;;;;;13.15;36.22;98781.88;5028742;28;20095;-58
2022/05/24 13:24:18;;;;;;;5.40;1.17;;;;;;;12.96;36.64;98796.91;5030121;28;20033;-59
2022/05/24 13:27:02;;;;;;;6.60;1.58;;;;;;;12.81;37.99;98800.41;5029060;28;20063;-59
2022/05/24 13:33:33;;;;;;;9.13;1.20;;;;;;;12.57;38.42;98781.75;5030708;28;20046;-59
2022/05/24 13:35:02;;;;;;;2.17;0.88;;;;;;;12.41;39.94;98811.38;5030443;28;20037;-58
2022/05/24 13:37:52;;;;;;;2.75;0.90;;;;;;;12.31;39.57;98798.03;5029611;28;20509;-59
2022/05/24 13:40:18;;;;;;;4.72;1.10;;;;;;;12.34;39.85;98804.84;5028688;28;20501;-59
2022/05/24 13:42:56;;;;;;;2.90;0.90;;;;;;;12.41;39.49;98807.00;5028373;28;20115;-56
2022/05/24 13:45:27;;;;;;;3.80;0.70;;;;;;;12.41;39.62;98812.22;5029079;28;20037;-59
2022/05/24 13:47:59;;;;;;;1.88;0.80;;;;;;;12.50;38.87;98819.56;5030262;28;20130;-58
2022/05/24 13:50:41;;;;;;;3.00;0.88;;;;;;;12.68;38.08;98817.66;5028380;28;20046;-58
2022/05/24 13:53:27;;;;;;;6.40;1.30;;;;;;;12.89;38.00;98816.44;5030404;28;20505;-57
2022/05/24 13:55:59;;;;;;;5.50;1.00;;;;;;;13.08;37.77;98817.03;5030296;28;20047;-55
2022/05/24 13:58:33;;;;;;;2.95;0.80;;;;;;;13.21;37.28;98811.16;5029846;28;20041;-57
2022/05/24 14:01:06;;;;;;;10.35;2.15;;;;;;;13.24;37.24;98806.56;5022650;28;20095;-57
2022/05/24 14:03:41;;;;;;;6.53;1.55;;;;;;;13.24;37.10;98811.78;5009961;28;20061;-56
2022/05/24 14:06:12;;;;;;;1.38;0.73;;;;;;;13.29;36.97;98809.78;5028752;28;20047;-58
2022/05/24 14:08:42;;;;;;;3.80;1.88;;;;;;;13.46;36.34;98808.75;5028412;28;20132;-56
2022/05/24 14:11:13;;;;;;;2.00;0.93;;;;;;;13.57;36.48;98807.19;5028685;28;20045;-56
2022/05/24 14:13:41;;;;;;;3.55;1.30;;;;;;;13.61;36.22;98802.59;5029690;28;20045;-58
2022/05/24 14:16:07;;;;;;;2.53;0.98;;;;;;;13.69;36.25;98813.44;5030013;28;20053;-59
2022/05/24 14:18:34;;;;;;;1.40;0.88;;;;;;;13.75;36.16;98809.63;5013691;28;20037;-61
2022/05/24 14:20:59;;;;;;;3.40;0.70;;;;;;;13.85;36.02;98813.34;5034481;28;20128;-60
2022/05/24 14:23:25;;;;;;;1.83;0.70;;;;;;;13.65;36.17;98798.91;5034310;28;20124;-59
2022/05/24 14:25:51;;;;;;;1.60;0.82;;;;;;;13.61;36.12;98807.03;5033204;28;20060;-58
2022/05/24 14:28:17;;;;;;;14.23;1.65;;;;;;;13.41;36.64;98813.41;5032616;28;20037;-56
2022/05/24 14:30:44;;;;;;;4.18;1.17;;;;;;;13.08;36.97;98790.13;5032755;28;20045;-60
2022/05/24 14:33:12;;;;;;;3.75;1.55;;;;;;;12.86;37.37;98795.75;5032807;28;20045;-59
2022/05/24 14:35:38;;;;;;;2.25;0.90;;;;;;;12.82;37.65;98822.97;5012936;28;20490;-58
2022/05/24 14:38:04;;;;;;;3.28;0.77;;;;;;;12.66;38.22;98828.19;5031849;28;20063;-57
2022/05/24 14:40:32;;;;;;;7.07;1.02;;;;;;;12.57;38.02;98825.25;5034219;28;20038;-60
2022/05/24 14:42:58;;;;;;;6.50;1.00;;;;;;;12.49;38.83;98828.28;5031470;28;20041;-58
2022/05/24 14:45:24;;;;;;;6.80;1.52;;;;;;;12.52;38.84;98835.09;5031441;28;20045;-56
2022/05/24 14:47:55;;;;;;;2.08;1.00;;;;;;;12.48;38.69;98830.97;5032406;28;20272;-56
2022/05/24 14:50:21;;;;;;;3.65;1.25;;;;;;;12.36;38.65;98832.50;5033560;28;20045;-59
2022/05/24 14:52:47;;;;;;;4.03;1.10;;;;;;;12.21;38.45;98835.94;5031759;28;20568;-59
2022/05/24 14:55:23;;;;;;;6.57;0.90;;;;;;;12.09;39.21;98837.44;5030676;28;20141;-56
2022/05/24 14:57:49;;;;;;;2.83;0.90;;;;;;;11.96;39.53;98828.63;5032401;28;20057;-59
2022/05/24 15:00:16;;;;;;;2.00;0.90;;;;;;;11.93;39.38;98836.59;5033330;28;20096;-60
2022/05/24 15:02:43;;;;;;;2.67;0.90;;;;;;;11.84;40.12;98831.88;5032140;28;20041;-56
2022/05/24 15:05:10;;;;;;;1.45;0.80;;;;;;;11.78;40.17;98840.00;5033067;28;20497;-58
2022/05/24 15:15:49;;;;;;;1.70;0.80;;;;;;;11.51;41.09;98844.88;5032200;28;20513;-59
2022/05/24 15:18:15;;;;;;;2.45;0.80;;;;;;;11.45;40.90;98842.56;5033135;28;20044;-56
2022/05/24 15:20:42;;;;;;;3.10;1.02;;;;;;;11.28;41.03;98820.00;5031807;28;20524;-58
2022/05/24 15:23:14;;;;;;;3.65;0.90;;;;;;;11.44;41.02;98835.69;5033030;28;20052;-56
2022/05/24 15:26:01;;;;;;;2.58;1.00;;;;;;;11.56;40.70;98850.69;5021410;28;20461;-59
2022/05/24 15:28:30;;;;;;;7.90;1.13;;;;;;;11.68;40.47;98843.97;5032375;28;20129;-58
2022/05/24 15:30:56;;;;;;;;;;;;;;;11.77;39.85;98841.78;5031970;28;20044;-59
2022/05/24 15:33:22;;;;;;;1.85;1.20;;;;;;;11.75;39.82;98840.16;5032451;28;19917;-56
2022/05/24 15:35:48;;;;;;;2.80;1.30;;;;;;;11.76;39.56;98845.31;5032296;28;20037;-58
2022/05/24 15:38:16;;;;;;;2.00;0.80;;;;;;;11.69;39.51;98838.69;5032633;28;20417;-52
2022/05/24 15:40:41;;;;;;;2.17;0.88;;;;;;;11.59;39.78;98837.50;5032229;28;20045;-51
2022/05/24 15:43:09;;;;;;;4.50;1.42;;;;;;;11.52;39.95;98848.28;5032645;28;20091;-51
2022/05/24 15:45:35;;;;;;;2.55;1.15;;;;;;;11.38;39.97;98847.25;5032764;28;20132;-52
2022/05/24 15:48:01;;;;;;;3.63;1.02;;;;;;;11.29;40.08;98846.88;5030397;28;20092;-53
2022/05/24 15:50:27;;;;;;;6.53;0.90;;;;;;;11.15;40.36;98842.34;5032300;28;20061;-56
2022/05/24 15:52:53;;;;;;;3.13;1.02;;;;;;;11.17;40.38;98857.88;5030702;28;20041;-53
2022/05/24 15:55:19;;;;;;;1.65;1.00;;;;;;;11.18;41.40;98860.44;5030609;28;20455;-52
2022/05/24 15:57:45;;;;;;;2.25;1.08;;;;;;;11.13;42.07;98869.38;5030439;28;20072;-58
2022/05/24 16:00:15;;;;;;;2.40;1.10;;;;;;;11.07;42.18;98865.31;5030425;28;20041;-54
2022/05/24 16:02:44;;;;;;;4.78;1.80;;;;;;;11.09;42.34;98870.44;5026172;28;20517;-54
2022/05/24 16:11:00;;;;;;;4.20;0.90;;;;;;;10.96;42.34;98868.44;5028900;28;20037;-57
2022/05/24 16:13:26;;;;;;;1.98;1.00;;;;;;;10.83;42.56;98856.13;5028269;28;20128;-57
2022/05/24 16:15:57;;;;;;;1.95;0.70;;;;;;;10.92;42.45;98868.66;5012342;28;20055;-58
2022/05/24 16:18:23;;;;;;;2.17;1.08;;;;;;;10.93;42.38;98876.41;5030230;28;20041;-59
2022/05/24 16:20:49;;;;;;;2.83;1.08;;;;;;;10.82;42.45;98857.03;5029828;28;20527;-58
2022/05/24 16:23:16;;;;;;;5.50;2.75;;;;;;;10.93;42.78;98881.59;5028734;28;20041;-59
2022/05/24 16:25:43;;;;;;;5.63;2.55;;;;;;;10.93;43.15;98884.22;5029152;28;20051;-58
2022/05/24 16:28:11;;;;;;;4.97;1.70;;;;;;;10.90;43.33;98894.75;5025753;28;20046;-60
2022/05/24 16:30:40;;;;;;;6.68;1.00;;;;;;;10.89;43.18;98881.81;5031559;28;20045;-59
2022/05/24 16:33:07;;;;;;;2.75;1.10;;;;;;;10.88;43.58;98891.38;5030084;28;20428;-59
2022/05/24 16:35:34;;;;;;;1.45;0.90;;;;;;;10.79;43.54;98881.41;5029672;28;20079;-56
2022/05/24 16:38:00;;;;;;;2.17;0.63;;;;;;;10.81;43.02;98889.13;5031044;28;20504;-58
2022/05/24 16:40:25;;;;;;;1.52;0.80;;;;;;;10.76;43.03;98906.72;5029626;28;20055;-57
2022/05/24 16:42:51;;;;;;;3.90;1.00;;;;;;;10.73;42.77;98899.06;5027208;28;20140;-60
2022/05/24 16:45:17;;;;;;;8.95;0.90;;;;;;;10.66;42.75;98895.91;5031283;28;20080;-56
2022/05/24 16:47:43;;;;;;;2.83;1.10;;;;;;;10.65;43.07;98909.81;5029433;28;20042;-58
2022/05/24 16:50:09;;;;;;;0.95;0.63;;;;;;;10.58;43.56;98911.00;5030466;28;20049;-50
2022/05/24 16:52:35;;;;;;;3.55;1.10;;;;;;;10.53;43.49;98908.63;5030807;28;20060;-60
2022/05/24 17:00:30;;;;;;;1.83;0.90;;;;;;;10.41;44.17;98922.22;5027461;28;20038;-58
2022/05/24 17:03:00;;;;;;;2.33;0.85;;;;;;;10.39;44.08;98933.56;5029063;28;20045;-54
2022/05/24 17:05:28;;;;;;;4.47;0.90;;;;;;;10.36;44.51;98926.78;5030321;28;20045;-59
2022/05/24 17:07:54;;;;;;;6.50;0.85;;;;;;;10.34;44.19;98930.34;5030707;28;20076;-59
2022/05/24 17:10:22;;;;;;;2.50;0.90;;;;;;;10.33;44.40;98928.66;5030819;28;20810;-60
2022/05/24 17:13:01;;;;;;;6.07;0.95;;;;;;;10.30;44.91;98934.84;5030812;28;20041;-56
2022/05/24 17:15:27;;;;;;;7.78;1.10;;;;;;;10.28;44.62;98935.81;5030529;28;20037;-54
2022/05/24 17:17:53;;;;;;;2.60;0.90;;;;;;;10.25;44.77;98929.00;5028839;28;20102;-54
2022/05/24 17:20:26;;;;;;;1.85;0.90;;;;;;;10.23;45.01;98935.19;5021038;28;20116;-50
2022/05/24 17:22:52;;;;;;;2.35;0.70;;;;;;;10.22;44.97;98930.88;5030349;28;20549;-53
2022/05/24 17:25:19;;;;;;;1.73;0.88;;;;;;;10.19;45.38;98939.69;5030193;28;20068;-50
2022/05/24 17:27:45;;;;;;;2.03;1.13;;;;;;;10.14;45.57;98939.84;5029137;28;20642;-53
2022/05/24 17:30:13;;;;;;;3.05;0.80;;;;;;;10.12;45.80;98944.25;5030069;28;20063;-57
2022/05/24 17:33:04;;;;;;;4.20;1.00;;;;;;;10.11;46.16;98945.16;5030745;28;20069;-56
2022/05/24 17:35:32;;;;;;;5.03;1.00;;;;;;;10.03;46.02;98939.47;5022099;28;20468;-51
2022/05/24 17:37:58;;;;;;;2.70;0.90;;;;;;;10.02;45.93;98939.53;5030682;28;20041;-51
2022/05/24 17:40:24;;;;;;;5.90;1.15;;;;;;;9.95;46.46;98935.50;5030176;28;20512;-51
2022/05/24 17:42:53;;;;;;;3.55;0.75;;;;;;;9.93;46.58;98945.16;5027046;28;20042;-51
2022/05/24 17:45:23;;;;;;;2.88;1.08;;;;;;;9.90;46.72;98964.28;5028342;28;20139;-55
2022/05/24 17:47:50;;;;;;;2.95;1.08;;;;;;;9.86;46.58;98967.06;5028224;28;20095;-57
2022/05/24 17:50:17;;;;;;;4.30;0.80;;;;;;;9.70;46.92;98954.75;5012166;28;20124;-55
2022/05/24 17:52:43;;;;;;;1.77;0.90;;;;;;;9.63;46.84;98963.69;5026222;28;20045;-51
2022/05/24 17:55:09;;;;;;;3.20;1.30;;;;;;;9.67;46.97;98982.59;5030106;28;20429;-54
2022/05/24 17:57:35;;;;;;;5.68;1.52;;;;;;;9.50;47.73;98977.25;5027852;28;20110;-54
2022/05/24 18:00:03;;;;;;;3.75;1.50;;;;;;;9.26;47.72;98959.19;5030167;28;20129;-57
2022/05/24 18:02:40;;;;;;;6.60;1.58;;;;;;;9.25;47.83;98985.19;5028592;28;20048;-59
2022/05/24 18:05:08;;;;;;;3.92;1.40;;;;;;;9.22;48.63;98999.13;5030247;28;20065;-54
2022/05/24 18:07:33;;;;;;;8.80;2.67;;;;;;;9.09;48.94;98992.75;5009781;28;20038;-58
2022/05/24 18:09:59;;;;;;;4.65;2.65;;;;;;;8.92;48.86;98987.34;5021408;28;20052;-57
2022/05/24 18:12:25;;;;;;;8.52;3.33;;;;;;;8.90;49.49;98997.78;5030366;28;20045;-54
2022/05/24 18:14:51;;;;;;;15.27;5.43;;;;;;;8.87;49.61;98995.31;5029983;28;20072;-56
2022/05/24 18:17:16;;;;;;;8.77;5.45;;;;;;;8.87;49.44;98997.91;5029178;28;20182;-56
2022/05/24 18:20:02;;;;;;;10.55;5.03;;;;;;;8.92;49.39;99003.75;5029899;28;20037;-58
2022/05/24 18:22:35;;;;;;;8.60;4.68;;;;;;;8.98;49.15;99000.09;5029767;28;20509;-51
2022/05/24 18:33:24;;;;;;;10.55;4.30;;;;;;;8.97;48.92;98987.19;5014471;28;20064;-56
2022/05/24 18:35:52;;;;;;;8.88;2.42;;;;;;;9.12;48.84;99010.75;5028981;28;20153;-58
2022/05/24 18:38:18;;;;;;;7.90;2.63;;;;;;;9.13;49.00;99016.78;5029897;28;20497;-51
2022/05/24 18:40:44;;;;;;;6.47;2.65;;;;;;;9.12;49.06;99007.31;5030133;28;20048;-51
2022/05/24 18:43:10;;;;;;;6.30;3.33;;;;;;;9.04;48.82;98994.66;5029873;28;20045;-55
2022/05/24 18:45:38;;;;;;;7.72;4.32;;;;;;;9.15;48.84;99015.00;5028752;28;20425;-61